sensor_id;sensor_type;location;lat;lon;timestamp;P1;durP1;ratioP1;P2;durP2;ratioP2
58015;SDS011;43809;52.110;20.964;2023-01-19T00:01:10;31.00;;;16.55;;
58015;SDS011;43809;52.110;20.964;2023-01-19T00:03:13;35.07;;;16.83;;
58015;SDS011;43809;52.110;20.964;2023-01-19T00:05:38;30.25;;;16.10;;
58015;SDS011;43809;52.110;20.964;2023-01-19T00:07:38;34.70;;;15.35;;
58015;SDS011;43809;52.110;20.964;2023-01-19T00:09:38;25.73;;;13.02;;
58015;SDS011;43809;52.110;20.964;2023-01-19T00:11:39;27.83;;;13.32;;
58015;SDS011;43809;52.110;20.964;2023-01-19T00:16:05;28.60;;;14.18;;
58015;SDS011;43809;52.110;20.964;2023-01-19T00:18:05;29.38;;;14.32;;
58015;SDS011;43809;52.110;20.964;2023-01-19T00:20:06;36.25;;;15.82;;
58015;SDS011;43809;52.110;20.964;2023-01-19T00:22:07;29.65;;;14.43;;
58015;SDS011;43809;52.110;20.964;2023-01-19T00:24:07;28.83;;;13.17;;
58015;SDS011;43809;52.110;20.964;2023-01-19T00:26:07;32.33;;;15.45;;
58015;SDS011;43809;52.110;20.964;2023-01-19T00:28:11;25.83;;;12.52;;
58015;SDS011;43809;52.110;20.964;2023-01-19T00:30:11;29.23;;;12.77;;
58015;SDS011;43809;52.110;20.964;2023-01-19T00:32:11;21.80;;;11.38;;
58015;SDS011;43809;52.110;20.964;2023-01-19T00:34:12;30.77;;;15.97;;
58015;SDS011;43809;52.110;20.964;2023-01-19T00:36:23;34.70;;;16.13;;
58015;SDS011;43809;52.110;20.964;2023-01-19T00:38:23;30.08;;;14.63;;
58015;SDS011;43809;52.110;20.964;2023-01-19T00:40:23;24.23;;;11.98;;
58015;SDS011;43809;52.110;20.964;2023-01-19T00:42:23;26.17;;;11.73;;
58015;SDS011;43809;52.110;20.964;2023-01-19T00:44:39;29.20;;;13.48;;
58015;SDS011;43809;52.110;20.964;2023-01-19T00:46:39;24.50;;;12.60;;
58015;SDS011;43809;52.110;20.964;2023-01-19T00:48:39;34.17;;;16.80;;
58015;SDS011;43809;52.110;20.964;2023-01-19T00:50:39;33.83;;;16.00;;
58015;SDS011;43809;52.110;20.964;2023-01-19T00:52:39;35.20;;;17.58;;
58015;SDS011;43809;52.110;20.964;2023-01-19T00:54:40;30.25;;;14.80;;
58015;SDS011;43809;52.110;20.964;2023-01-19T00:56:47;36.97;;;16.87;;
58015;SDS011;43809;52.110;20.964;2023-01-19T00:58:47;37.22;;;17.75;;
58015;SDS011;43809;52.110;20.964;2023-01-19T01:00:47;28.63;;;14.33;;
58015;SDS011;43809;52.110;20.964;2023-01-19T01:02:48;29.23;;;14.38;;
58015;SDS011;43809;52.110;20.964;2023-01-19T01:04:49;31.35;;;14.23;;
58015;SDS011;43809;52.110;20.964;2023-01-19T01:06:53;30.63;;;14.20;;
58015;SDS011;43809;52.110;20.964;2023-01-19T01:08:53;29.23;;;13.05;;
58015;SDS011;43809;52.110;20.964;2023-01-19T01:10:54;21.98;;;10.75;;
58015;SDS011;43809;52.110;20.964;2023-01-19T01:12:54;21.83;;;10.98;;
58015;SDS011;43809;52.110;20.964;2023-01-19T01:14:55;19.42;;;9.40;;
58015;SDS011;43809;52.110;20.964;2023-01-19T01:16:55;19.20;;;9.90;;
58015;SDS011;43809;52.110;20.964;2023-01-19T01:18:55;23.13;;;11.20;;
58015;SDS011;43809;52.110;20.964;2023-01-19T01:21:06;22.77;;;11.10;;
58015;SDS011;43809;52.110;20.964;2023-01-19T01:23:06;20.15;;;9.95;;
58015;SDS011;43809;52.110;20.964;2023-01-19T01:25:07;19.85;;;9.60;;
58015;SDS011;43809;52.110;20.964;2023-01-19T01:27:15;20.52;;;9.77;;
58015;SDS011;43809;52.110;20.964;2023-01-19T01:29:15;21.60;;;10.38;;
58015;SDS011;43809;52.110;20.964;2023-01-19T01:31:16;20.20;;;10.10;;
58015;SDS011;43809;52.110;20.964;2023-01-19T01:33:16;21.77;;;10.02;;
58015;SDS011;43809;52.110;20.964;2023-01-19T01:35:16;20.75;;;9.90;;
58015;SDS011;43809;52.110;20.964;2023-01-19T01:37:16;23.10;;;11.10;;
58015;SDS011;43809;52.110;20.964;2023-01-19T01:39:16;23.67;;;11.23;;
58015;SDS011;43809;52.110;20.964;2023-01-19T01:41:17;32.25;;;14.85;;
58015;SDS011;43809;52.110;20.964;2023-01-19T01:43:17;34.47;;;16.25;;
58015;SDS011;43809;52.110;20.964;2023-01-19T01:45:27;34.38;;;15.93;;
58015;SDS011;43809;52.110;20.964;2023-01-19T01:47:43;29.10;;;14.52;;
58015;SDS011;43809;52.110;20.964;2023-01-19T01:49:44;26.05;;;12.70;;
58015;SDS011;43809;52.110;20.964;2023-01-19T01:54:22;33.85;;;15.73;;
58015;SDS011;43809;52.110;20.964;2023-01-19T01:56:26;32.03;;;16.02;;
58015;SDS011;43809;52.110;20.964;2023-01-19T01:58:31;29.48;;;14.23;;
58015;SDS011;43809;52.110;20.964;2023-01-19T02:00:31;29.33;;;13.13;;
58015;SDS011;43809;52.110;20.964;2023-01-19T02:02:52;23.83;;;11.25;;
58015;SDS011;43809;52.110;20.964;2023-01-19T02:07:20;36.80;;;17.95;;
58015;SDS011;43809;52.110;20.964;2023-01-19T02:09:42;41.22;;;19.40;;
58015;SDS011;43809;52.110;20.964;2023-01-19T02:14:38;38.05;;;18.52;;
58015;SDS011;43809;52.110;20.964;2023-01-19T02:16:38;39.42;;;18.55;;
58015;SDS011;43809;52.110;20.964;2023-01-19T02:18:41;33.55;;;16.00;;
58015;SDS011;43809;52.110;20.964;2023-01-19T02:20:44;30.92;;;15.23;;
58015;SDS011;43809;52.110;20.964;2023-01-19T02:22:46;25.83;;;12.93;;
58015;SDS011;43809;52.110;20.964;2023-01-19T02:24:47;31.85;;;14.57;;
58015;SDS011;43809;52.110;20.964;2023-01-19T02:26:48;27.10;;;13.07;;
58015;SDS011;43809;52.110;20.964;2023-01-19T02:28:51;23.70;;;11.85;;
58015;SDS011;43809;52.110;20.964;2023-01-19T02:30:56;24.45;;;11.77;;
58015;SDS011;43809;52.110;20.964;2023-01-19T02:32:56;27.92;;;14.07;;
58015;SDS011;43809;52.110;20.964;2023-01-19T02:34:56;30.67;;;15.13;;
58015;SDS011;43809;52.110;20.964;2023-01-19T02:36:57;25.25;;;12.65;;
58015;SDS011;43809;52.110;20.964;2023-01-19T02:38:59;23.42;;;11.35;;
58015;SDS011;43809;52.110;20.964;2023-01-19T02:41:00;20.00;;;9.85;;
58015;SDS011;43809;52.110;20.964;2023-01-19T02:43:00;21.90;;;10.07;;
58015;SDS011;43809;52.110;20.964;2023-01-19T02:45:02;21.23;;;10.48;;
58015;SDS011;43809;52.110;20.964;2023-01-19T02:47:05;18.80;;;9.43;;
58015;SDS011;43809;52.110;20.964;2023-01-19T02:49:06;15.55;;;8.27;;
58015;SDS011;43809;52.110;20.964;2023-01-19T02:51:11;13.50;;;7.45;;
58015;SDS011;43809;52.110;20.964;2023-01-19T02:55:31;15.00;;;7.32;;
58015;SDS011;43809;52.110;20.964;2023-01-19T02:57:41;14.02;;;6.60;;
58015;SDS011;43809;52.110;20.964;2023-01-19T02:59:58;13.30;;;6.55;;
58015;SDS011;43809;52.110;20.964;2023-01-19T03:02:15;13.90;;;6.40;;
58015;SDS011;43809;52.110;20.964;2023-01-19T03:04:34;13.50;;;6.55;;
58015;SDS011;43809;52.110;20.964;2023-01-19T03:06:41;13.45;;;6.68;;
58015;SDS011;43809;52.110;20.964;2023-01-19T03:09:48;13.90;;;7.53;;
58015;SDS011;43809;52.110;20.964;2023-01-19T03:11:13;15.57;;;7.50;;
58015;SDS011;43809;52.110;20.964;2023-01-19T03:15:43;12.93;;;5.93;;
58015;SDS011;43809;52.110;20.964;2023-01-19T03:17:46;12.43;;;6.03;;
58015;SDS011;43809;52.110;20.964;2023-01-19T03:19:48;14.07;;;7.05;;
58015;SDS011;43809;52.110;20.964;2023-01-19T03:21:49;17.33;;;8.18;;
58015;SDS011;43809;52.110;20.964;2023-01-19T03:23:51;12.95;;;7.38;;
58015;SDS011;43809;52.110;20.964;2023-01-19T03:31:02;11.65;;;5.85;;
58015;SDS011;43809;52.110;20.964;2023-01-19T03:33:10;14.02;;;6.72;;
58015;SDS011;43809;52.110;20.964;2023-01-19T03:35:12;23.73;;;11.20;;
58015;SDS011;43809;52.110;20.964;2023-01-19T03:37:13;21.98;;;10.93;;
58015;SDS011;43809;52.110;20.964;2023-01-19T03:39:25;22.25;;;10.48;;
58015;SDS011;43809;52.110;20.964;2023-01-19T03:41:26;32.85;;;15.27;;
58015;SDS011;43809;52.110;20.964;2023-01-19T03:43:27;31.33;;;14.45;;
58015;SDS011;43809;52.110;20.964;2023-01-19T03:45:28;30.65;;;15.30;;
58015;SDS011;43809;52.110;20.964;2023-01-19T03:47:29;26.17;;;13.20;;
58015;SDS011;43809;52.110;20.964;2023-01-19T03:49:30;29.25;;;13.90;;
58015;SDS011;43809;52.110;20.964;2023-01-19T03:51:33;27.80;;;14.77;;
58015;SDS011;43809;52.110;20.964;2023-01-19T03:53:34;25.80;;;12.77;;
58015;SDS011;43809;52.110;20.964;2023-01-19T03:55:34;29.55;;;13.88;;
58015;SDS011;43809;52.110;20.964;2023-01-19T03:57:35;28.15;;;13.75;;
58015;SDS011;43809;52.110;20.964;2023-01-19T03:59:36;31.30;;;14.70;;
58015;SDS011;43809;52.110;20.964;2023-01-19T04:01:36;35.17;;;16.37;;
58015;SDS011;43809;52.110;20.964;2023-01-19T04:03:36;28.57;;;14.60;;
58015;SDS011;43809;52.110;20.964;2023-01-19T04:05:36;27.02;;;13.25;;
58015;SDS011;43809;52.110;20.964;2023-01-19T04:07:36;27.17;;;12.70;;
58015;SDS011;43809;52.110;20.964;2023-01-19T04:09:37;21.63;;;10.88;;
58015;SDS011;43809;52.110;20.964;2023-01-19T04:11:37;19.85;;;9.57;;
58015;SDS011;43809;52.110;20.964;2023-01-19T04:13:37;18.50;;;9.80;;
58015;SDS011;43809;52.110;20.964;2023-01-19T04:15:37;16.23;;;8.18;;
58015;SDS011;43809;52.110;20.964;2023-01-19T04:17:37;13.97;;;7.40;;
58015;SDS011;43809;52.110;20.964;2023-01-19T04:19:38;13.70;;;6.45;;
58015;SDS011;43809;52.110;20.964;2023-01-19T04:21:38;13.27;;;6.57;;
58015;SDS011;43809;52.110;20.964;2023-01-19T04:23:38;10.05;;;5.32;;
58015;SDS011;43809;52.110;20.964;2023-01-19T04:25:38;9.37;;;5.90;;
58015;SDS011;43809;52.110;20.964;2023-01-19T04:27:39;14.43;;;7.15;;
58015;SDS011;43809;52.110;20.964;2023-01-19T04:29:39;15.40;;;6.95;;
58015;SDS011;43809;52.110;20.964;2023-01-19T04:31:39;13.60;;;6.80;;
58015;SDS011;43809;52.110;20.964;2023-01-19T04:33:40;12.60;;;6.43;;
58015;SDS011;43809;52.110;20.964;2023-01-19T04:35:40;14.48;;;6.63;;
58015;SDS011;43809;52.110;20.964;2023-01-19T04:37:41;14.00;;;7.07;;
58015;SDS011;43809;52.110;20.964;2023-01-19T04:39:41;17.77;;;8.35;;
58015;SDS011;43809;52.110;20.964;2023-01-19T04:41:41;19.48;;;10.02;;
58015;SDS011;43809;52.110;20.964;2023-01-19T04:43:49;18.95;;;9.35;;
58015;SDS011;43809;52.110;20.964;2023-01-19T04:45:49;23.42;;;11.43;;
58015;SDS011;43809;52.110;20.964;2023-01-19T04:47:49;23.33;;;11.27;;
58015;SDS011;43809;52.110;20.964;2023-01-19T04:49:50;27.33;;;12.80;;
58015;SDS011;43809;52.110;20.964;2023-01-19T04:51:55;25.17;;;11.48;;
58015;SDS011;43809;52.110;20.964;2023-01-19T04:53:55;24.13;;;12.00;;
58015;SDS011;43809;52.110;20.964;2023-01-19T04:55:56;23.52;;;11.70;;
58015;SDS011;43809;52.110;20.964;2023-01-19T04:57:58;21.38;;;9.82;;
58015;SDS011;43809;52.110;20.964;2023-01-19T04:59:59;17.30;;;8.45;;
58015;SDS011;43809;52.110;20.964;2023-01-19T05:01:59;22.73;;;11.73;;
58015;SDS011;43809;52.110;20.964;2023-01-19T05:03:59;28.80;;;14.00;;
58015;SDS011;43809;52.110;20.964;2023-01-19T05:08:04;25.10;;;12.57;;
58015;SDS011;43809;52.110;20.964;2023-01-19T05:10:05;23.95;;;12.85;;
58015;SDS011;43809;52.110;20.964;2023-01-19T05:12:05;25.55;;;12.07;;
58015;SDS011;43809;52.110;20.964;2023-01-19T05:14:05;25.27;;;11.88;;
58015;SDS011;43809;52.110;20.964;2023-01-19T05:16:06;21.80;;;11.35;;
58015;SDS011;43809;52.110;20.964;2023-01-19T05:18:06;29.92;;;13.95;;
58015;SDS011;43809;52.110;20.964;2023-01-19T05:20:08;28.33;;;13.40;;
58015;SDS011;43809;52.110;20.964;2023-01-19T05:22:16;25.90;;;12.07;;
58015;SDS011;43809;52.110;20.964;2023-01-19T05:24:16;22.00;;;10.77;;
58015;SDS011;43809;52.110;20.964;2023-01-19T05:26:17;20.63;;;9.27;;
58015;SDS011;43809;52.110;20.964;2023-01-19T05:28:17;19.10;;;8.80;;
58015;SDS011;43809;52.110;20.964;2023-01-19T05:30:20;25.88;;;11.75;;
58015;SDS011;43809;52.110;20.964;2023-01-19T05:32:20;31.65;;;15.15;;
58015;SDS011;43809;52.110;20.964;2023-01-19T05:34:20;32.17;;;16.52;;
58015;SDS011;43809;52.110;20.964;2023-01-19T05:36:26;29.75;;;14.07;;
58015;SDS011;43809;52.110;20.964;2023-01-19T05:38:26;30.77;;;15.60;;
58015;SDS011;43809;52.110;20.964;2023-01-19T05:40:27;29.77;;;14.82;;
58015;SDS011;43809;52.110;20.964;2023-01-19T05:42:27;32.88;;;15.73;;
58015;SDS011;43809;52.110;20.964;2023-01-19T05:44:27;33.85;;;16.63;;
58015;SDS011;43809;52.110;20.964;2023-01-19T05:46:28;31.58;;;15.23;;
58015;SDS011;43809;52.110;20.964;2023-01-19T05:48:30;24.13;;;13.10;;
58015;SDS011;43809;52.110;20.964;2023-01-19T05:52:31;28.55;;;13.88;;
58015;SDS011;43809;52.110;20.964;2023-01-19T05:54:31;30.15;;;14.85;;
58015;SDS011;43809;52.110;20.964;2023-01-19T05:56:32;29.23;;;14.05;;
58015;SDS011;43809;52.110;20.964;2023-01-19T05:58:32;30.77;;;14.63;;
58015;SDS011;43809;52.110;20.964;2023-01-19T06:00:34;25.48;;;13.40;;
58015;SDS011;43809;52.110;20.964;2023-01-19T06:02:34;23.87;;;12.97;;
58015;SDS011;43809;52.110;20.964;2023-01-19T06:04:34;28.23;;;13.40;;
58015;SDS011;43809;52.110;20.964;2023-01-19T06:06:34;26.80;;;13.90;;
58015;SDS011;43809;52.110;20.964;2023-01-19T06:08:34;25.83;;;12.20;;
58015;SDS011;43809;52.110;20.964;2023-01-19T06:10:35;25.95;;;12.73;;
58015;SDS011;43809;52.110;20.964;2023-01-19T06:12:35;26.77;;;12.57;;
58015;SDS011;43809;52.110;20.964;2023-01-19T06:14:36;19.92;;;10.35;;
58015;SDS011;43809;52.110;20.964;2023-01-19T06:16:37;24.85;;;12.30;;
58015;SDS011;43809;52.110;20.964;2023-01-19T06:18:46;25.38;;;12.13;;
58015;SDS011;43809;52.110;20.964;2023-01-19T06:20:46;30.33;;;14.00;;
58015;SDS011;43809;52.110;20.964;2023-01-19T06:22:46;30.30;;;15.03;;
58015;SDS011;43809;52.110;20.964;2023-01-19T06:24:46;28.20;;;13.77;;
58015;SDS011;43809;52.110;20.964;2023-01-19T06:26:49;29.52;;;14.30;;
58015;SDS011;43809;52.110;20.964;2023-01-19T06:30:50;28.38;;;14.55;;
58015;SDS011;43809;52.110;20.964;2023-01-19T06:32:51;29.80;;;14.45;;
58015;SDS011;43809;52.110;20.964;2023-01-19T06:34:52;31.33;;;15.40;;
58015;SDS011;43809;52.110;20.964;2023-01-19T06:37:13;27.65;;;13.00;;
58015;SDS011;43809;52.110;20.964;2023-01-19T06:39:16;24.83;;;12.10;;
58015;SDS011;43809;52.110;20.964;2023-01-19T06:41:16;22.70;;;10.80;;
58015;SDS011;43809;52.110;20.964;2023-01-19T06:43:16;20.97;;;10.87;;
58015;SDS011;43809;52.110;20.964;2023-01-19T06:45:17;18.38;;;9.27;;
58015;SDS011;43809;52.110;20.964;2023-01-19T06:47:17;22.75;;;11.40;;
58015;SDS011;43809;52.110;20.964;2023-01-19T06:49:17;24.63;;;11.20;;
58015;SDS011;43809;52.110;20.964;2023-01-19T06:51:17;22.40;;;11.20;;
58015;SDS011;43809;52.110;20.964;2023-01-19T06:53:18;19.70;;;9.38;;
58015;SDS011;43809;52.110;20.964;2023-01-19T06:55:19;20.33;;;9.53;;
58015;SDS011;43809;52.110;20.964;2023-01-19T06:57:20;25.20;;;11.98;;
58015;SDS011;43809;52.110;20.964;2023-01-19T06:59:20;21.03;;;11.00;;
58015;SDS011;43809;52.110;20.964;2023-01-19T07:01:20;18.73;;;9.80;;
58015;SDS011;43809;52.110;20.964;2023-01-19T07:03:21;22.48;;;10.70;;
58015;SDS011;43809;52.110;20.964;2023-01-19T07:05:21;19.25;;;9.27;;
58015;SDS011;43809;52.110;20.964;2023-01-19T07:07:21;25.55;;;13.13;;
58015;SDS011;43809;52.110;20.964;2023-01-19T07:09:21;28.45;;;13.73;;
58015;SDS011;43809;52.110;20.964;2023-01-19T07:11:23;23.52;;;11.80;;
58015;SDS011;43809;52.110;20.964;2023-01-19T07:13:24;29.65;;;13.65;;
58015;SDS011;43809;52.110;20.964;2023-01-19T07:15:24;25.47;;;12.93;;
58015;SDS011;43809;52.110;20.964;2023-01-19T07:17:24;28.73;;;15.15;;
58015;SDS011;43809;52.110;20.964;2023-01-19T07:19:24;35.03;;;15.98;;
58015;SDS011;43809;52.110;20.964;2023-01-19T07:21:25;30.77;;;15.70;;
58015;SDS011;43809;52.110;20.964;2023-01-19T07:23:25;31.33;;;14.57;;
58015;SDS011;43809;52.110;20.964;2023-01-19T07:25:29;30.48;;;14.38;;
58015;SDS011;43809;52.110;20.964;2023-01-19T07:27:29;30.90;;;15.02;;
58015;SDS011;43809;52.110;20.964;2023-01-19T07:29:29;25.92;;;13.10;;
58015;SDS011;43809;52.110;20.964;2023-01-19T07:31:30;22.83;;;11.73;;
58015;SDS011;43809;52.110;20.964;2023-01-19T07:33:30;25.37;;;13.07;;
58015;SDS011;43809;52.110;20.964;2023-01-19T07:35:30;26.38;;;12.20;;
58015;SDS011;43809;52.110;20.964;2023-01-19T07:37:30;29.17;;;14.38;;
58015;SDS011;43809;52.110;20.964;2023-01-19T07:39:31;30.98;;;14.45;;
58015;SDS011;43809;52.110;20.964;2023-01-19T07:41:31;31.23;;;13.90;;
58015;SDS011;43809;52.110;20.964;2023-01-19T07:43:32;28.50;;;13.90;;
58015;SDS011;43809;52.110;20.964;2023-01-19T07:45:32;29.75;;;14.90;;
58015;SDS011;43809;52.110;20.964;2023-01-19T07:47:34;30.63;;;15.23;;
58015;SDS011;43809;52.110;20.964;2023-01-19T07:49:34;31.70;;;14.88;;
58015;SDS011;43809;52.110;20.964;2023-01-19T07:51:35;27.77;;;13.80;;
58015;SDS011;43809;52.110;20.964;2023-01-19T07:53:35;32.67;;;15.88;;
58015;SDS011;43809;52.110;20.964;2023-01-19T07:55:35;42.92;;;18.92;;
58015;SDS011;43809;52.110;20.964;2023-01-19T07:57:35;32.72;;;16.00;;
58015;SDS011;43809;52.110;20.964;2023-01-19T07:59:36;29.23;;;13.90;;
58015;SDS011;43809;52.110;20.964;2023-01-19T08:01:37;26.98;;;13.85;;
58015;SDS011;43809;52.110;20.964;2023-01-19T08:03:38;30.67;;;14.25;;
58015;SDS011;43809;52.110;20.964;2023-01-19T08:05:38;27.65;;;14.38;;
58015;SDS011;43809;52.110;20.964;2023-01-19T08:07:38;25.13;;;13.07;;
58015;SDS011;43809;52.110;20.964;2023-01-19T08:09:38;22.43;;;11.23;;
58015;SDS011;43809;52.110;20.964;2023-01-19T08:11:39;23.75;;;11.15;;
58015;SDS011;43809;52.110;20.964;2023-01-19T08:13:39;21.52;;;10.82;;
58015;SDS011;43809;52.110;20.964;2023-01-19T08:15:39;20.02;;;11.02;;
58015;SDS011;43809;52.110;20.964;2023-01-19T08:17:40;20.30;;;9.73;;
58015;SDS011;43809;52.110;20.964;2023-01-19T08:19:41;18.97;;;9.43;;
58015;SDS011;43809;52.110;20.964;2023-01-19T08:21:41;19.70;;;10.20;;
58015;SDS011;43809;52.110;20.964;2023-01-19T08:23:41;20.63;;;10.10;;
58015;SDS011;43809;52.110;20.964;2023-01-19T08:25:42;16.48;;;8.65;;
58015;SDS011;43809;52.110;20.964;2023-01-19T08:27:43;18.40;;;9.40;;
58015;SDS011;43809;52.110;20.964;2023-01-19T08:29:43;14.45;;;8.60;;
58015;SDS011;43809;52.110;20.964;2023-01-19T08:31:44;13.20;;;7.20;;
58015;SDS011;43809;52.110;20.964;2023-01-19T08:33:44;18.63;;;9.75;;
58015;SDS011;43809;52.110;20.964;2023-01-19T08:35:46;21.20;;;11.05;;
58015;SDS011;43809;52.110;20.964;2023-01-19T08:37:47;19.23;;;9.82;;
58015;SDS011;43809;52.110;20.964;2023-01-19T08:39:48;19.70;;;9.82;;
58015;SDS011;43809;52.110;20.964;2023-01-19T08:41:49;21.60;;;10.82;;
58015;SDS011;43809;52.110;20.964;2023-01-19T08:43:49;21.27;;;10.10;;
58015;SDS011;43809;52.110;20.964;2023-01-19T08:45:50;20.25;;;9.98;;
58015;SDS011;43809;52.110;20.964;2023-01-19T08:47:50;20.42;;;9.65;;
58015;SDS011;43809;52.110;20.964;2023-01-19T08:49:50;22.97;;;11.50;;
58015;SDS011;43809;52.110;20.964;2023-01-19T08:51:50;22.07;;;11.10;;
58015;SDS011;43809;52.110;20.964;2023-01-19T08:53:51;20.03;;;10.50;;
58015;SDS011;43809;52.110;20.964;2023-01-19T08:55:55;26.17;;;13.10;;
58015;SDS011;43809;52.110;20.964;2023-01-19T08:58:00;25.88;;;13.05;;
58015;SDS011;43809;52.110;20.964;2023-01-19T09:02:03;25.98;;;13.02;;
58015;SDS011;43809;52.110;20.964;2023-01-19T09:04:03;26.60;;;13.85;;
58015;SDS011;43809;52.110;20.964;2023-01-19T09:06:04;27.70;;;14.90;;
58015;SDS011;43809;52.110;20.964;2023-01-19T09:08:08;22.75;;;12.05;;
58015;SDS011;43809;52.110;20.964;2023-01-19T09:10:09;23.63;;;11.75;;
58015;SDS011;43809;52.110;20.964;2023-01-19T09:12:09;23.70;;;11.35;;
58015;SDS011;43809;52.110;20.964;2023-01-19T09:14:09;23.85;;;11.55;;
58015;SDS011;43809;52.110;20.964;2023-01-19T09:16:09;19.27;;;10.02;;
58015;SDS011;43809;52.110;20.964;2023-01-19T09:18:12;19.08;;;9.88;;
58015;SDS011;43809;52.110;20.964;2023-01-19T09:20:13;21.80;;;11.57;;
58015;SDS011;43809;52.110;20.964;2023-01-19T09:22:13;20.98;;;11.05;;
58015;SDS011;43809;52.110;20.964;2023-01-19T09:24:13;22.33;;;11.27;;
58015;SDS011;43809;52.110;20.964;2023-01-19T09:26:13;19.83;;;10.27;;
58015;SDS011;43809;52.110;20.964;2023-01-19T09:28:15;20.73;;;10.00;;
58015;SDS011;43809;52.110;20.964;2023-01-19T09:30:16;27.15;;;13.43;;
58015;SDS011;43809;52.110;20.964;2023-01-19T09:32:18;25.98;;;12.57;;
58015;SDS011;43809;52.110;20.964;2023-01-19T09:34:18;20.55;;;10.80;;
58015;SDS011;43809;52.110;20.964;2023-01-19T09:36:19;25.52;;;12.35;;
58015;SDS011;43809;52.110;20.964;2023-01-19T09:38:19;24.63;;;12.18;;
58015;SDS011;43809;52.110;20.964;2023-01-19T09:40:20;22.20;;;12.20;;
58015;SDS011;43809;52.110;20.964;2023-01-19T09:42:54;25.27;;;11.63;;
58015;SDS011;43809;52.110;20.964;2023-01-19T09:44:46;22.42;;;9.98;;
58015;SDS011;43809;52.110;20.964;2023-01-19T09:46:48;18.80;;;10.07;;
58015;SDS011;43809;52.110;20.964;2023-01-19T09:50:49;20.03;;;10.70;;
58015;SDS011;43809;52.110;20.964;2023-01-19T09:52:52;23.33;;;11.00;;
58015;SDS011;43809;52.110;20.964;2023-01-19T09:54:54;25.05;;;12.05;;
58015;SDS011;43809;52.110;20.964;2023-01-19T09:56:55;21.85;;;10.80;;
58015;SDS011;43809;52.110;20.964;2023-01-19T09:58:55;24.83;;;12.18;;
58015;SDS011;43809;52.110;20.964;2023-01-19T10:00:57;22.75;;;11.27;;
58015;SDS011;43809;52.110;20.964;2023-01-19T10:03:06;25.27;;;13.43;;
58015;SDS011;43809;52.110;20.964;2023-01-19T10:07:37;22.42;;;12.32;;
58015;SDS011;43809;52.110;20.964;2023-01-19T10:09:40;24.25;;;12.02;;
58015;SDS011;43809;52.110;20.964;2023-01-19T10:11:43;30.10;;;15.48;;
58015;SDS011;43809;52.110;20.964;2023-01-19T10:13:45;26.05;;;13.18;;
58015;SDS011;43809;52.110;20.964;2023-01-19T10:16:02;26.08;;;12.30;;
58015;SDS011;43809;52.110;20.964;2023-01-19T10:20:03;22.77;;;11.73;;
58015;SDS011;43809;52.110;20.964;2023-01-19T10:22:18;19.63;;;10.27;;
58015;SDS011;43809;52.110;20.964;2023-01-19T10:24:22;16.55;;;8.88;;
58015;SDS011;43809;52.110;20.964;2023-01-19T10:26:33;19.27;;;9.15;;
58015;SDS011;43809;52.110;20.964;2023-01-19T10:28:36;21.70;;;10.10;;
58015;SDS011;43809;52.110;20.964;2023-01-19T10:30:37;20.63;;;9.95;;
58015;SDS011;43809;52.110;20.964;2023-01-19T10:32:41;25.17;;;11.52;;
58015;SDS011;43809;52.110;20.964;2023-01-19T10:34:41;21.42;;;10.40;;
58015;SDS011;43809;52.110;20.964;2023-01-19T10:36:42;21.48;;;10.27;;
58015;SDS011;43809;52.110;20.964;2023-01-19T10:38:42;19.02;;;9.70;;
58015;SDS011;43809;52.110;20.964;2023-01-19T10:40:45;22.27;;;10.50;;
58015;SDS011;43809;52.110;20.964;2023-01-19T10:42:47;33.65;;;15.40;;
58015;SDS011;43809;52.110;20.964;2023-01-19T10:44:47;38.25;;;18.88;;
58015;SDS011;43809;52.110;20.964;2023-01-19T10:46:48;32.53;;;14.93;;
58015;SDS011;43809;52.110;20.964;2023-01-19T10:48:49;26.20;;;12.10;;
58015;SDS011;43809;52.110;20.964;2023-01-19T10:51:00;26.77;;;11.98;;
58015;SDS011;43809;52.110;20.964;2023-01-19T10:53:01;20.00;;;9.70;;
58015;SDS011;43809;52.110;20.964;2023-01-19T10:55:05;16.63;;;8.57;;
58015;SDS011;43809;52.110;20.964;2023-01-19T10:57:07;18.02;;;8.35;;
58015;SDS011;43809;52.110;20.964;2023-01-19T10:59:26;17.10;;;9.48;;
58015;SDS011;43809;52.110;20.964;2023-01-19T11:01:28;14.43;;;7.45;;
58015;SDS011;43809;52.110;20.964;2023-01-19T11:03:30;14.47;;;7.73;;
58015;SDS011;43809;52.110;20.964;2023-01-19T11:05:31;12.23;;;6.93;;
58015;SDS011;43809;52.110;20.964;2023-01-19T11:07:32;11.23;;;6.40;;
58015;SDS011;43809;52.110;20.964;2023-01-19T11:09:32;10.77;;;6.00;;
58015;SDS011;43809;52.110;20.964;2023-01-19T11:11:32;10.13;;;5.10;;
58015;SDS011;43809;52.110;20.964;2023-01-19T11:13:42;10.13;;;5.13;;
58015;SDS011;43809;52.110;20.964;2023-01-19T11:17:49;8.82;;;5.38;;
58015;SDS011;43809;52.110;20.964;2023-01-19T11:20:12;10.02;;;5.25;;
58015;SDS011;43809;52.110;20.964;2023-01-19T11:22:30;12.50;;;6.57;;
58015;SDS011;43809;52.110;20.964;2023-01-19T11:24:31;10.25;;;6.15;;
58015;SDS011;43809;52.110;20.964;2023-01-19T11:26:33;11.30;;;6.53;;
58015;SDS011;43809;52.110;20.964;2023-01-19T11:28:34;11.98;;;7.03;;
58015;SDS011;43809;52.110;20.964;2023-01-19T11:30:35;10.73;;;6.07;;
58015;SDS011;43809;52.110;20.964;2023-01-19T11:32:35;10.93;;;5.80;;
58015;SDS011;43809;52.110;20.964;2023-01-19T11:34:36;9.27;;;5.25;;
58015;SDS011;43809;52.110;20.964;2023-01-19T11:36:39;14.38;;;6.68;;
58015;SDS011;43809;52.110;20.964;2023-01-19T11:38:41;9.10;;;5.47;;
58015;SDS011;43809;52.110;20.964;2023-01-19T11:40:46;9.52;;;5.28;;
58015;SDS011;43809;52.110;20.964;2023-01-19T11:42:49;10.15;;;5.40;;
58015;SDS011;43809;52.110;20.964;2023-01-19T11:47:03;9.63;;;4.57;;
58015;SDS011;43809;52.110;20.964;2023-01-19T11:49:04;10.40;;;5.22;;
58015;SDS011;43809;52.110;20.964;2023-01-19T11:51:09;13.30;;;7.40;;
58015;SDS011;43809;52.110;20.964;2023-01-19T11:53:25;12.93;;;6.70;;
58015;SDS011;43809;52.110;20.964;2023-01-19T11:55:37;13.35;;;7.20;;
58015;SDS011;43809;52.110;20.964;2023-01-19T11:57:46;12.07;;;6.82;;
58015;SDS011;43809;52.110;20.964;2023-01-19T11:59:47;10.88;;;5.80;;
58015;SDS011;43809;52.110;20.964;2023-01-19T12:01:49;11.57;;;5.97;;
58015;SDS011;43809;52.110;20.964;2023-01-19T12:05:51;9.70;;;5.22;;
58015;SDS011;43809;52.110;20.964;2023-01-19T12:07:52;11.90;;;6.23;;
58015;SDS011;43809;52.110;20.964;2023-01-19T12:09:54;9.18;;;5.63;;
58015;SDS011;43809;52.110;20.964;2023-01-19T12:12:05;9.75;;;5.35;;
58015;SDS011;43809;52.110;20.964;2023-01-19T12:14:13;12.02;;;6.30;;
58015;SDS011;43809;52.110;20.964;2023-01-19T12:16:19;10.75;;;5.45;;
58015;SDS011;43809;52.110;20.964;2023-01-19T12:18:20;8.82;;;4.90;;
58015;SDS011;43809;52.110;20.964;2023-01-19T12:20:39;9.95;;;5.10;;
58015;SDS011;43809;52.110;20.964;2023-01-19T12:22:46;9.30;;;4.50;;
58015;SDS011;43809;52.110;20.964;2023-01-19T12:24:57;8.10;;;4.50;;
58015;SDS011;43809;52.110;20.964;2023-01-19T12:27:00;7.90;;;4.25;;
58015;SDS011;43809;52.110;20.964;2023-01-19T12:29:11;8.98;;;5.53;;
58015;SDS011;43809;52.110;20.964;2023-01-19T12:31:15;6.28;;;4.22;;